createdAt,value
2019-01-15T00:02:19.253Z,0.40
2019-01-15T00:12:22.829Z,0.47
2019-01-15T00:22:26.397Z,0.60
2019-01-15T00:32:29.973Z,0.60
2019-01-15T00:42:33.621Z,0.60
2019-01-15T00:52:37.190Z,0.70
2019-01-15T01:02:40.770Z,0.60
2019-01-15T01:12:44.366Z,0.80
2019-01-15T01:22:47.937Z,0.60
2019-01-15T01:32:51.543Z,0.83
2019-01-15T01:42:55.129Z,0.77
2019-01-15T01:52:58.702Z,0.67
2019-01-15T02:03:02.283Z,0.93
2019-01-15T02:13:05.841Z,1.00
2019-01-15T02:23:09.393Z,1.10
2019-01-15T02:33:13.006Z,1.10
2019-01-15T02:43:16.574Z,0.97
2019-01-15T02:53:20.168Z,0.80
2019-01-15T03:03:23.765Z,0.83
2019-01-15T03:13:27.342Z,0.90
2019-01-15T03:23:30.942Z,0.80
2019-01-15T03:33:34.627Z,0.80
2019-01-15T03:43:38.200Z,0.80
2019-01-15T03:53:41.810Z,1.00
2019-01-15T04:03:45.493Z,0.60
2019-01-15T04:13:49.092Z,0.80
2019-01-15T04:23:52.742Z,1.00
2019-01-15T04:33:56.318Z,0.80
2019-01-15T04:43:59.911Z,0.97
2019-01-15T04:54:03.763Z,0.67
2019-01-15T05:04:07.407Z,0.60
2019-01-15T05:14:10.979Z,1.00
2019-01-15T05:24:14.570Z,0.60
2019-01-15T05:34:18.152Z,0.70
2019-01-15T05:44:21.756Z,0.90
2019-01-15T05:54:25.373Z,0.70
2019-01-15T06:04:28.971Z,0.87
2019-01-15T06:14:32.585Z,0.57
2019-01-15T06:24:36.160Z,0.90
2019-01-15T06:34:39.730Z,1.20
2019-01-15T06:44:43.327Z,1.10
2019-01-15T06:54:46.943Z,0.93
2019-01-15T07:04:50.528Z,1.43
2019-01-15T07:14:54.114Z,1.53
2019-01-15T07:24:57.693Z,1.73
2019-01-15T07:35:01.271Z,1.90
2019-01-15T07:45:06.178Z,1.80
2019-01-15T07:55:10.395Z,2.10
2019-01-15T08:05:14.902Z,2.43
2019-01-15T08:15:20.405Z,2.00
2019-01-15T08:25:23.981Z,2.03
2019-01-15T08:35:27.568Z,2.20
2019-01-15T08:45:31.133Z,1.93
2019-01-15T08:55:34.702Z,2.10
2019-01-15T09:05:38.286Z,2.70
2019-01-15T09:15:41.853Z,2.27
2019-01-15T09:25:45.433Z,2.37
2019-01-15T09:35:49.527Z,3.83
2019-01-15T09:45:53.297Z,4.00
2019-01-15T09:55:56.864Z,3.20
2019-01-15T10:06:00.447Z,2.83
2019-01-15T10:16:04.042Z,3.97
2019-01-15T10:26:07.610Z,4.97
2019-01-15T10:36:10.067Z,4.40
2019-01-15T10:46:13.637Z,5.60
2019-01-15T10:56:17.207Z,4.60
2019-01-15T11:06:20.817Z,4.37
2019-01-15T11:16:24.390Z,5.63
2019-01-15T11:26:27.975Z,4.80
2019-01-15T11:36:31.555Z,4.43
2019-01-15T11:46:35.126Z,3.43
2019-01-15T11:56:38.750Z,3.77
2019-01-15T12:07:04.219Z,4.37
2019-01-15T12:17:26.890Z,3.93
2019-01-15T12:27:55.370Z,3.50
2019-01-15T12:38:20.909Z,2.70
2019-01-15T12:48:55.950Z,2.80
2019-01-15T12:59:24.497Z,3.40
2019-01-15T13:09:50.618Z,2.93
2019-01-15T13:20:05.366Z,3.30
2019-01-15T13:30:45.806Z,2.83
2019-01-15T13:41:02.404Z,2.20
2019-01-15T13:51:46.721Z,1.93
2019-01-15T14:02:15.258Z,2.00
2019-01-15T14:12:29.942Z,1.90
2019-01-15T14:22:55.106Z,2.57
2019-01-15T14:33:13.181Z,2.00
2019-01-15T14:43:41.782Z,1.90
2019-01-15T14:53:59.910Z,1.90
2019-01-15T15:04:18.729Z,2.60
2019-01-15T15:14:48.475Z,2.00
2019-01-15T15:25:11.160Z,2.57
2019-01-15T15:35:47.546Z,2.20
2019-01-15T15:46:22.398Z,2.10
2019-01-15T15:56:43.790Z,1.50
2019-01-15T16:07:05.420Z,1.60
2019-01-15T16:17:28.090Z,1.50
2019-01-15T16:27:51.110Z,1.50
2019-01-15T16:38:12.958Z,1.53
2019-01-15T16:48:35.282Z,1.80
2019-01-15T16:58:49.055Z,2.50
2019-01-15T17:09:10.430Z,3.40
2019-01-15T17:19:30.466Z,2.67
2019-01-15T17:29:53.166Z,3.30
2019-01-15T17:40:15.838Z,2.73
2019-01-15T17:50:45.722Z,3.07
2019-01-15T18:01:14.575Z,2.90
2019-01-15T18:11:44.018Z,2.50
2019-01-15T18:21:57.426Z,2.53
2019-01-15T18:32:24.903Z,3.20
2019-01-15T18:42:50.493Z,3.60
2019-01-15T18:53:03.950Z,3.30
2019-01-15T19:03:38.459Z,2.50
2019-01-15T19:13:57.937Z,2.30
2019-01-15T19:24:19.427Z,2.80
2019-01-15T19:34:41.346Z,3.57
2019-01-15T19:44:55.481Z,3.63
2019-01-15T19:55:21.178Z,3.20
2019-01-15T20:05:51.505Z,3.40
2019-01-15T20:16:14.183Z,2.70
2019-01-15T20:26:26.170Z,2.63
2019-01-15T20:36:49.270Z,3.60
2019-01-15T20:47:25.548Z,2.50
2019-01-15T20:57:48.438Z,2.17
2019-01-15T21:08:03.826Z,2.57
2019-01-15T21:18:29.789Z,2.47
2019-01-15T21:29:01.499Z,2.43
2019-01-15T21:39:31.873Z,3.53
2019-01-15T21:50:06.946Z,5.90
2019-01-15T22:00:36.406Z,4.87
2019-01-15T22:11:01.902Z,5.10
2019-01-15T22:21:36.686Z,5.33
2019-01-15T22:32:11.466Z,4.50
2019-01-15T22:42:31.674Z,5.67
2019-01-15T22:52:57.370Z,6.30
2019-01-15T23:03:09.187Z,5.93
2019-01-15T23:13:30.757Z,9.30
2019-01-15T23:23:55.909Z,10.30
2019-01-15T23:34:18.586Z,8.97
2019-01-15T23:44:40.232Z,9.87
2019-01-15T23:55:11.999Z,11.50
